createdAt,value
2016-06-08T09:55:32.047Z,1015.34
2016-06-08T09:56:32.049Z,1015.3
2016-06-08T09:57:32.052Z,1015.32
2016-06-08T09:58:32.071Z,1015.35
2016-06-08T09:59:32.557Z,1015.28
2016-06-08T10:00:32.092Z,1015.31
2016-06-08T10:01:38.517Z,1015.3
2016-06-08T10:02:38.738Z,1015.28
2016-06-08T10:03:38.537Z,1015.29
2016-06-08T10:04:38.556Z,1015.24
2016-06-08T10:05:38.543Z,1015.22
2016-06-08T10:06:38.546Z,1015.27
2016-06-08T10:07:38.565Z,1015.31
2016-06-08T10:08:38.581Z,1015.31
2016-06-08T10:09:38.585Z,1015.29
2016-06-08T10:10:38.634Z,1015.28
2016-06-08T10:11:38.637Z,1015.35
2016-06-08T10:12:38.609Z,1015.29
2016-06-08T10:13:38.611Z,1015.31
2016-06-08T10:14:38.630Z,1015.31
2016-06-08T10:15:38.633Z,1015.34
2016-06-08T10:16:38.886Z,1015.31
2016-06-08T10:17:38.653Z,1015.32
2016-06-08T10:18:38.733Z,1015.33
2016-06-08T10:19:38.752Z,1015.36
2016-06-08T10:20:38.771Z,1015.27
2016-06-08T10:21:39.071Z,1015.3
2016-06-08T10:22:38.760Z,1015.29
2016-06-08T10:23:38.794Z,1015.27
2016-06-08T10:24:39.124Z,1015.26
2016-06-08T10:25:38.721Z,1015.27
2016-06-08T10:26:38.740Z,1015.23
2016-06-08T10:27:39.008Z,1015.27
2016-06-08T10:28:38.746Z,1015.24
2016-06-08T10:29:39.029Z,1015.29
2016-06-08T10:30:38.766Z,1015.29
2016-06-08T10:31:38.768Z,1015.31
2016-06-08T10:32:38.788Z,1015.24
2016-06-08T10:33:38.806Z,1015.26
2016-06-08T10:34:38.809Z,1015.22
2016-06-08T10:35:38.858Z,1015.23
2016-06-08T10:36:38.907Z,1015.24
2016-06-08T10:37:38.832Z,1015.2
2016-06-08T10:38:38.851Z,1015.23
2016-06-08T10:39:38.915Z,1015.26
2016-06-08T10:40:38.856Z,1015.22
2016-06-08T10:41:38.859Z,1015.18
2016-06-08T10:42:38.892Z,1015.19
2016-06-08T10:43:39.411Z,1015.2
2016-06-08T10:44:38.898Z,1015.19
2016-06-08T10:45:38.900Z,1015.2
2016-06-08T10:46:38.903Z,1015.14
2016-06-08T10:47:38.921Z,1015.12
2016-06-08T10:48:38.924Z,1015.13
2016-06-08T10:49:38.942Z,1015.17
2016-06-08T10:50:38.992Z,1015.13
2016-06-08T10:51:38.963Z,1015.14
2016-06-08T10:52:38.966Z,1015.08
2016-06-08T10:53:38.969Z,1015.1
2016-06-08T10:54:38.988Z,1015.14
2016-06-08T10:55:38.990Z,1015.17
2016-06-08T10:56:39.007Z,1015.1
2016-06-08T10:57:39.010Z,1015.13
2016-06-08T10:58:39.248Z,1015.09
2016-06-08T10:59:39.157Z,1015.1
2016-06-08T11:00:39.863Z,1015.07
2016-06-08T11:01:39.038Z,1015.06
2016-06-08T11:02:39.056Z,1015.05
2016-06-08T11:03:39.059Z,1015.09
2016-06-08T11:04:39.076Z,1015.09
2016-06-08T11:05:39.079Z,1015.05
2016-06-08T11:06:39.082Z,1015.02
2016-06-08T11:07:39.101Z,1015.01
2016-06-08T11:08:39.103Z,1014.96
2016-06-08T11:09:39.106Z,1015
2016-06-08T11:10:39.483Z,1014.98
2016-06-08T11:11:39.126Z,1014.97
2016-06-08T11:12:39.129Z,1014.97
2016-06-08T11:13:39.147Z,1014.97
2016-06-08T11:14:39.150Z,1014.97
2016-06-08T11:15:39.153Z,1014.98
2016-06-08T11:16:39.171Z,1014.97
2016-06-08T11:17:39.174Z,1014.95
2016-06-08T11:18:39.177Z,1014.96
2016-06-08T11:19:39.210Z,1014.93
2016-06-08T11:20:39.198Z,1014.97
2016-06-08T11:21:39.217Z,1014.98
2016-06-08T11:22:39.218Z,1014.97
2016-06-08T11:23:39.238Z,1014.97
2016-06-08T11:24:39.240Z,1014.96
2016-06-08T11:25:39.258Z,1014.99
2016-06-08T11:26:39.246Z,1014.95
2016-06-08T11:27:39.732Z,1014.97
2016-06-08T11:28:39.751Z,1014.96
2016-06-08T11:29:39.847Z,1014.97
2016-06-08T11:30:39.302Z,1014.95
2016-06-08T11:31:39.305Z,1014.97
2016-06-08T11:32:39.324Z,1014.99
2016-06-08T11:33:39.326Z,1015
2016-06-08T11:34:39.329Z,1014.94
2016-06-08T11:35:39.332Z,1014.99
2016-06-08T11:36:39.350Z,1014.98
2016-06-08T11:37:39.368Z,1014.96
2016-06-08T11:38:39.355Z,1014.93
2016-06-08T11:39:39.373Z,1014.92
2016-06-08T11:40:39.377Z,1014.92
2016-06-08T11:41:39.395Z,1014.95
2016-06-08T11:42:39.398Z,1014.91
2016-06-08T11:43:39.400Z,1014.9
2016-06-08T11:44:39.419Z,1014.89
2016-06-08T11:45:39.484Z,1014.88
2016-06-08T11:46:39.425Z,1014.88
2016-06-08T11:47:39.442Z,1014.86
2016-06-08T11:48:39.445Z,1014.84
2016-06-08T11:49:39.463Z,1014.89
2016-06-08T11:50:39.466Z,1014.88
2016-06-08T11:51:39.500Z,1014.9
2016-06-08T11:52:39.486Z,1014.97
2016-06-08T11:53:39.489Z,1014.96
2016-06-08T11:54:39.508Z,1014.87
2016-06-08T11:55:39.510Z,1014.88
2016-06-08T11:56:39.514Z,1014.88
2016-06-08T11:57:39.516Z,1014.88
2016-06-08T11:58:40.237Z,1014.83
2016-06-08T11:59:39.552Z,1014.8
2016-06-08T12:00:39.555Z,1014.78
2016-06-08T12:01:39.589Z,1014.8
2016-06-08T12:02:39.577Z,1014.8
2016-06-08T12:03:39.579Z,1014.81
2016-06-08T12:04:39.581Z,1014.77
2016-06-08T12:05:39.601Z,1014.78
2016-06-08T12:06:39.603Z,1014.77
2016-06-08T12:07:39.606Z,1014.7
2016-06-08T12:08:39.624Z,1014.71
2016-06-08T12:09:39.657Z,1014.68
2016-06-08T12:10:39.645Z,1014.73
2016-06-08T12:11:39.648Z,1014.77
2016-06-08T12:12:39.681Z,1014.72
2016-06-08T12:13:39.668Z,1014.68
2016-06-08T12:14:39.671Z,1014.7
2016-06-08T12:15:39.673Z,1014.66
2016-06-08T12:16:39.692Z,1014.68
2016-06-08T12:17:39.695Z,1014.67
2016-06-08T12:18:39.697Z,1014.64
2016-06-08T12:19:39.716Z,1014.66
2016-06-08T12:20:39.843Z,1014.68
2016-06-08T12:21:40.049Z,1014.64
2016-06-08T12:22:39.864Z,1014.7
2016-06-08T12:23:40.117Z,1014.66
2016-06-08T12:24:40.182Z,1014.61
2016-06-08T12:25:39.888Z,1014.59
2016-06-08T12:26:40.407Z,1014.64
2016-06-08T12:27:39.894Z,1014.64
2016-06-08T12:28:39.850Z,1014.6
2016-06-08T12:29:39.930Z,1014.63
2016-06-08T12:30:39.823Z,1014.62
2016-06-08T12:31:40.186Z,1014.64
2016-06-08T12:32:39.829Z,1014.64
2016-06-08T12:33:39.832Z,1014.62
2016-06-08T12:34:39.849Z,1014.61
2016-06-08T12:35:39.993Z,1014.61
2016-06-08T12:36:40.340Z,1014.62
2016-06-08T12:37:39.904Z,1014.58
2016-06-08T12:38:40.142Z,1014.6
2016-06-08T12:39:39.910Z,1014.62
2016-06-08T12:40:39.897Z,1014.64
2016-06-08T12:41:39.900Z,1014.61
2016-06-08T12:42:39.903Z,1014.63
2016-06-08T12:43:39.921Z,1014.63
2016-06-08T12:44:40.783Z,1014.66
2016-06-08T12:45:39.926Z,1014.64
2016-06-08T12:46:39.945Z,1014.68
2016-06-08T12:47:39.963Z,1014.67
2016-06-08T12:48:40.091Z,1014.64
2016-06-08T12:49:40.437Z,1014.6
2016-06-08T12:50:49.377Z,1014.61
2016-06-08T12:51:40.442Z,1014.66
2016-06-08T12:52:40.086Z,1014.66
2016-06-08T12:53:39.994Z,1014.64
2016-06-08T12:54:40.013Z,1014.63
2016-06-08T12:55:40.016Z,1014.57
2016-06-08T12:56:40.033Z,1014.63
2016-06-08T12:57:40.037Z,1014.63
2016-06-08T12:58:40.039Z,1014.6
2016-06-08T12:59:40.292Z,1014.58
2016-06-08T13:00:43.045Z,1014.61
2016-06-08T13:01:40.360Z,1014.54
2016-06-08T13:02:40.410Z,1014.58
2016-06-08T13:03:40.412Z,1014.49
2016-06-08T13:04:40.118Z,1014.56
2016-06-08T13:05:40.449Z,1014.57
2016-06-08T13:06:40.389Z,1014.55
2016-06-08T13:07:40.204Z,1014.56
2016-06-08T13:08:40.144Z,1014.53
2016-06-08T13:09:40.147Z,1014.49
2016-06-08T13:10:40.182Z,1014.55
2016-06-08T13:11:40.153Z,1014.49
2016-06-08T13:12:40.170Z,1014.51
2016-06-08T13:13:40.470Z,1014.51
2016-06-08T13:14:40.192Z,1014.52
2016-06-08T13:15:40.476Z,1014.55
2016-06-08T13:16:40.462Z,1014.53
2016-06-08T13:17:40.215Z,1014.61
2016-06-08T13:18:40.467Z,1014.53
2016-06-08T13:19:40.283Z,1014.52
2016-06-08T13:20:40.599Z,1014.5
2016-06-08T13:21:40.242Z,1014.53
2016-06-08T13:22:40.525Z,1014.6
2016-06-08T13:23:40.263Z,1014.52
2016-06-08T13:24:40.766Z,1014.5
2016-06-08T13:25:40.550Z,1014.53
2016-06-08T13:26:40.568Z,1014.54
2016-06-08T13:27:40.289Z,1014.52
2016-06-08T13:28:40.308Z,1014.56
2016-06-08T13:29:40.310Z,1014.56
2016-06-08T13:30:40.422Z,1014.51
2016-06-08T13:31:40.347Z,1014.54
2016-06-08T13:32:40.630Z,1014.53
2016-06-08T13:33:40.337Z,1014.5
2016-06-08T13:34:40.605Z,1014.53
2016-06-08T13:35:40.436Z,1014.55
2016-06-08T13:36:40.391Z,1014.57
2016-06-08T13:37:40.612Z,1014.61
2016-06-08T13:38:40.412Z,1014.54
2016-06-08T13:39:40.432Z,1014.65
2016-06-08T13:40:40.434Z,1014.58
2016-06-08T13:41:40.405Z,1014.58
2016-06-08T13:42:40.423Z,1014.62
2016-06-08T13:43:40.426Z,1014.65
2016-06-08T13:44:40.429Z,1014.71
2016-06-08T13:45:40.448Z,1014.62
2016-06-08T13:46:40.450Z,1014.57
2016-06-08T13:47:40.453Z,1014.54
2016-06-08T13:48:40.518Z,1014.65
2016-06-08T13:49:40.473Z,1014.65
2016-06-08T13:50:40.523Z,1014.67
2016-06-08T13:51:40.556Z,1014.59
2016-06-08T13:52:40.497Z,1014.59
2016-06-08T13:53:40.609Z,1014.64
2016-06-08T13:54:40.518Z,1014.61
2016-06-08T13:55:40.522Z,1014.55
2016-06-08T13:56:40.539Z,1014.6
2016-06-08T13:57:40.557Z,1014.55
2016-06-08T13:58:40.545Z,1014.64
2016-06-08T13:59:40.563Z,1014.6
2016-06-08T14:00:40.769Z,1014.59
2016-06-08T14:01:40.583Z,1014.61
2016-06-08T14:02:40.586Z,1014.59
2016-06-08T14:03:40.589Z,1014.6
2016-06-08T14:04:40.608Z,1014.59
2016-06-08T14:05:40.610Z,1014.57
2016-06-08T14:06:40.629Z,1014.58
2016-06-08T14:07:40.632Z,1014.59
2016-06-08T14:08:40.634Z,1014.61
2016-06-08T14:09:40.651Z,1014.63
2016-06-08T14:10:40.655Z,1014.63
2016-06-08T14:11:40.657Z,1014.64
2016-06-08T14:12:40.748Z,1014.65
2016-06-08T14:13:40.925Z,1014.59
2016-06-08T14:14:41.103Z,1014.66
2016-06-08T14:15:41.297Z,1014.61
2016-06-08T14:16:41.490Z,1014.62
2016-06-08T14:17:41.607Z,1014.63
2016-06-08T14:18:41.688Z,1014.64
2016-06-08T14:19:41.755Z,1014.65
2016-06-08T14:20:41.820Z,1014.62
2016-06-08T14:21:41.902Z,1014.57
2016-06-08T14:22:41.952Z,1014.65
2016-06-08T14:23:41.978Z,1014.63
2016-06-08T14:24:42.019Z,1014.67
2016-06-08T14:25:42.044Z,1014.7
2016-06-08T14:26:42.086Z,1014.62
2016-06-08T14:27:42.105Z,1014.71
2016-06-08T14:28:42.116Z,1014.72
2016-06-08T14:29:42.143Z,1014.68
2016-06-08T14:30:42.592Z,1014.66
2016-06-08T14:31:42.181Z,1014.71
2016-06-08T14:32:42.190Z,1014.67
2016-06-08T14:33:42.197Z,1014.65
2016-06-08T14:34:42.219Z,1014.62
2016-06-08T14:35:42.224Z,1014.66
2016-06-08T14:36:42.230Z,1014.67
2016-06-08T14:37:42.252Z,1014.66
2016-06-08T14:38:42.256Z,1014.66
2016-06-08T14:39:42.260Z,1014.68
2016-06-08T14:40:42.279Z,1014.69
2016-06-08T14:41:42.284Z,1014.75
2016-06-08T14:42:42.304Z,1014.69
2016-06-08T14:43:42.307Z,1014.69
2016-06-08T14:44:42.311Z,1014.75
2016-06-08T14:45:42.314Z,1014.73
2016-06-08T14:46:42.333Z,1014.73
2016-06-08T14:47:42.333Z,1014.74
2016-06-08T14:48:42.352Z,1014.69
2016-06-08T14:49:42.355Z,1014.71
2016-06-08T14:50:42.358Z,1014.71
2016-06-08T14:51:42.377Z,1014.75
2016-06-08T14:52:42.380Z,1014.71
2016-06-08T14:53:42.398Z,1014.73
2016-06-08T14:54:42.401Z,1014.78
2016-06-08T14:55:42.404Z,1014.74
2016-06-08T14:56:42.423Z,1014.79
2016-06-08T14:57:42.427Z,1014.8
2016-06-08T14:58:42.430Z,1014.75
2016-06-08T14:59:42.448Z,1014.79
2016-06-08T15:00:42.483Z,1014.84
2016-06-08T15:01:42.470Z,1014.81
2016-06-08T15:02:42.473Z,1014.84
2016-06-08T15:03:42.476Z,1014.81
2016-06-08T15:04:42.495Z,1014.81
2016-06-08T15:05:42.498Z,1014.83
2016-06-08T15:06:42.501Z,1014.77
2016-06-08T15:07:42.519Z,1014.81
2016-06-08T15:08:42.522Z,1014.79
2016-06-08T15:09:42.526Z,1014.8
2016-06-08T15:10:42.545Z,1014.83
2016-06-08T15:11:42.547Z,1014.77
2016-06-08T15:12:42.550Z,1014.77
2016-06-08T15:13:42.569Z,1014.76
2016-06-08T15:14:42.573Z,1014.75
2016-06-08T15:15:42.576Z,1014.73
2016-06-08T15:16:42.594Z,1014.7
2016-06-08T15:17:42.597Z,1014.72
2016-06-08T15:18:42.600Z,1014.74
2016-06-08T15:19:42.619Z,1014.7
2016-06-08T15:20:42.622Z,1014.69
2016-06-08T15:21:42.625Z,1014.67
2016-06-08T15:22:42.644Z,1014.67
2016-06-08T15:23:42.647Z,1014.66
2016-06-08T15:24:42.666Z,1014.7
2016-06-08T15:25:42.668Z,1014.67
2016-06-08T15:26:42.672Z,1014.65
2016-06-08T15:27:42.690Z,1014.65
2016-06-08T15:28:42.694Z,1014.63
2016-06-08T15:29:42.711Z,1014.64
2016-06-08T15:30:42.715Z,1014.59
2016-06-08T15:31:42.718Z,1014.63
2016-06-08T15:32:42.721Z,1014.6
2016-06-08T15:33:42.740Z,1014.63
2016-06-08T15:34:42.743Z,1014.59
2016-06-08T15:35:42.762Z,1014.6
2016-06-08T15:36:42.766Z,1014.58
2016-06-08T15:37:42.769Z,1014.61
2016-06-08T15:38:42.787Z,1014.6
2016-06-08T15:39:42.790Z,1014.61
2016-06-08T15:40:42.793Z,1014.6
2016-06-08T15:41:42.812Z,1014.58
2016-06-08T15:42:42.815Z,1014.57
2016-06-08T15:43:42.818Z,1014.55
2016-06-08T15:44:42.837Z,1014.58
2016-06-08T15:45:42.840Z,1014.55
2016-06-08T15:46:42.843Z,1014.55
2016-06-08T15:47:42.861Z,1014.59
2016-06-08T15:48:42.880Z,1014.53
2016-06-08T15:49:42.883Z,1014.48
2016-06-08T15:50:42.887Z,1014.5
2016-06-08T15:51:42.890Z,1014.5
2016-06-08T15:52:42.908Z,1014.5
2016-06-08T15:53:42.910Z,1014.53
2016-06-08T15:54:42.914Z,1014.51
2016-06-08T15:55:42.933Z,1014.45
2016-06-08T15:56:42.936Z,1014.43
2016-06-08T15:57:42.939Z,1014.41
2016-06-08T15:58:42.958Z,1014.44
2016-06-08T15:59:42.961Z,1014.44
2016-06-08T16:00:43.307Z,1014.43
2016-06-08T16:01:43.060Z,1014.47
2016-06-08T16:02:42.985Z,1014.45
2016-06-08T16:03:42.988Z,1014.42
2016-06-08T16:04:43.008Z,1014.39
2016-06-08T16:05:43.011Z,1014.38
2016-06-08T16:06:43.030Z,1014.36
2016-06-08T16:07:43.032Z,1014.36
2016-06-08T16:08:43.036Z,1014.34
2016-06-08T16:09:43.054Z,1014.31
2016-06-08T16:10:43.057Z,1014.34
2016-06-08T16:11:43.060Z,1014.35
2016-06-08T16:12:43.079Z,1014.31
2016-06-08T16:13:43.082Z,1014.3
2016-06-08T16:14:43.086Z,1014.25
2016-06-08T16:15:43.103Z,1014.25
2016-06-08T16:16:43.106Z,1014.22
2016-06-08T16:17:43.110Z,1014.29
2016-06-08T16:18:43.128Z,1014.3
2016-06-08T16:19:43.131Z,1014.24
2016-06-08T16:20:43.150Z,1014.21
2016-06-08T16:21:43.154Z,1014.17
2016-06-08T16:22:43.172Z,1014.2
2016-06-08T16:23:43.175Z,1014.24
2016-06-08T16:24:43.178Z,1014.15
2016-06-08T16:25:43.181Z,1014.17
2016-06-08T16:26:43.200Z,1014.16
2016-06-08T16:27:43.203Z,1014.16
2016-06-08T16:28:43.206Z,1014.14
2016-06-08T16:29:43.225Z,1014.1
2016-06-08T16:30:43.228Z,1014.12
2016-06-08T16:31:43.481Z,1014.11
2016-06-08T16:32:43.249Z,1014.09
2016-06-08T16:33:43.252Z,1014.12
2016-06-08T16:34:43.272Z,1014.13
2016-06-08T16:35:43.275Z,1014.11
2016-06-08T16:36:43.277Z,1014.13
2016-06-08T16:37:43.296Z,1014.1
2016-06-08T16:38:43.299Z,1014.09
2016-06-08T16:39:43.302Z,1014.09
2016-06-08T16:40:43.555Z,1014.07
2016-06-08T16:41:43.325Z,1014.04
2016-06-08T16:42:43.328Z,1014.08
2016-06-08T16:43:43.346Z,1014.07
2016-06-08T16:44:43.350Z,1014.03
2016-06-08T16:45:43.353Z,1014
2016-06-08T16:46:43.370Z,1014.01
2016-06-08T16:47:43.374Z,1013.99
2016-06-08T16:48:43.393Z,1013.98
2016-06-08T16:49:43.396Z,1014.01
2016-06-08T16:50:43.399Z,1013.97
2016-06-08T16:51:43.418Z,1013.98
2016-06-08T16:52:43.421Z,1014
2016-06-08T16:53:43.439Z,1014.01
2016-06-08T16:54:43.442Z,1013.99
2016-06-08T16:55:43.445Z,1013.97
2016-06-08T16:56:43.448Z,1013.95
2016-06-08T16:57:43.468Z,1013.93
2016-06-08T16:58:43.470Z,1013.95
2016-06-08T16:59:43.474Z,1013.96
2016-06-08T17:00:43.632Z,1013.91
2016-06-08T17:01:43.495Z,1013.93
2016-06-08T17:02:43.513Z,1013.92
2016-06-08T17:03:43.517Z,1013.91
2016-06-08T17:04:43.520Z,1013.9
2016-06-08T17:05:43.554Z,1013.9
2016-06-08T17:06:43.542Z,1013.91
2016-06-08T17:07:43.545Z,1013.91
2016-06-08T17:08:43.564Z,1013.89
2016-06-08T17:09:43.566Z,1013.91
2016-06-08T17:10:43.569Z,1013.9
2016-06-08T17:11:43.589Z,1013.9
2016-06-08T17:12:43.591Z,1013.91
2016-06-08T17:13:43.595Z,1013.89
2016-06-08T17:14:43.613Z,1013.86
2016-06-08T17:15:43.617Z,1013.86
2016-06-08T17:16:43.776Z,1013.88
2016-06-08T17:17:43.638Z,1013.87
2016-06-08T17:18:43.641Z,1013.87
2016-06-08T17:19:43.644Z,1013.85
2016-06-08T17:20:43.663Z,1013.84
2016-06-08T17:21:43.666Z,1013.86
2016-06-08T17:22:43.685Z,1013.86
2016-06-08T17:23:43.687Z,1013.83
2016-06-08T17:24:43.691Z,1013.84
2016-06-08T17:25:43.710Z,1013.81
2016-06-08T17:26:43.712Z,1013.82
2016-06-08T17:27:43.716Z,1013.82
2016-06-08T17:28:43.734Z,1013.82
2016-06-08T17:29:43.738Z,1013.81
2016-06-08T17:30:44.475Z,1013.83
2016-06-08T17:31:43.759Z,1013.82
2016-06-08T17:32:43.778Z,1013.83
2016-06-08T17:33:43.781Z,1013.82
2016-06-08T17:34:43.785Z,1013.83
2016-06-08T17:35:43.787Z,1013.84
2016-06-08T17:36:43.853Z,1013.87
2016-06-08T17:37:43.809Z,1013.84
2016-06-08T17:38:43.813Z,1013.83
2016-06-08T17:39:43.830Z,1013.86
2016-06-08T17:40:43.833Z,1013.83
2016-06-08T17:41:43.837Z,1013.86
2016-06-08T17:42:43.856Z,1013.83
2016-06-08T17:43:43.859Z,1013.82
2016-06-08T17:44:43.862Z,1013.79
2016-06-08T17:45:43.880Z,1013.78
2016-06-08T17:46:43.883Z,1013.77
2016-06-08T17:47:43.887Z,1013.82
2016-06-08T17:48:43.905Z,1013.82
2016-06-08T17:49:43.908Z,1013.82
2016-06-08T17:50:43.928Z,1013.84
2016-06-08T17:51:43.930Z,1013.83
2016-06-08T17:52:43.934Z,1013.83
2016-06-08T17:53:43.937Z,1013.87
2016-06-08T17:54:43.954Z,1013.86
2016-06-08T17:55:43.958Z,1013.9
2016-06-08T17:56:44.211Z,1013.88
2016-06-08T17:57:43.996Z,1013.84
2016-06-08T17:58:43.982Z,1013.86
2016-06-08T17:59:44.002Z,1013.88
2016-06-08T18:00:45.036Z,1013.83
2016-06-08T18:01:44.008Z,1013.84
2016-06-08T18:02:44.026Z,1013.88
2016-06-08T18:03:44.030Z,1013.89
2016-06-08T18:04:44.032Z,1013.92
2016-06-08T18:05:44.051Z,1013.9
2016-06-08T18:06:44.055Z,1013.88
2016-06-08T18:07:44.057Z,1013.85
2016-06-08T18:08:44.075Z,1013.88
2016-06-08T18:09:44.079Z,1013.89
2016-06-08T18:10:44.082Z,1013.91
2016-06-08T18:11:44.101Z,1013.92
2016-06-08T18:12:44.104Z,1013.92
2016-06-08T18:13:44.108Z,1013.94
2016-06-08T18:14:44.126Z,1013.93
2016-06-08T18:15:44.129Z,1013.96
2016-06-08T18:16:44.147Z,1013.96
2016-06-08T18:17:44.150Z,1013.96
2016-06-08T18:18:44.154Z,1013.96
2016-06-08T18:19:44.156Z,1013.91
2016-06-08T18:20:44.175Z,1013.95
2016-06-08T18:21:44.179Z,1013.94
2016-06-08T18:22:44.198Z,1013.96
2016-06-08T18:23:44.201Z,1013.92
2016-06-08T18:24:44.204Z,1013.96
2016-06-08T18:25:44.222Z,1013.96
2016-06-08T18:26:44.225Z,1013.94
2016-06-08T18:27:44.228Z,1013.95
2016-06-08T18:28:44.232Z,1013.94
2016-06-08T18:29:44.250Z,1013.94
2016-06-08T18:30:44.253Z,1013.97
2016-06-08T18:31:44.287Z,1013.99
2016-06-08T18:32:44.275Z,1014.01
2016-06-08T18:33:44.277Z,1013.98
2016-06-08T18:34:44.297Z,1014.01
2016-06-08T18:35:44.300Z,1014
2016-06-08T18:36:44.303Z,1014
2016-06-08T18:37:44.322Z,1014.06
2016-06-08T18:38:44.325Z,1014.01
2016-06-08T18:39:44.328Z,1014.06
2016-06-08T18:40:44.346Z,1014.03
2016-06-08T18:41:44.365Z,1014.09
2016-06-08T18:42:44.368Z,1014.09
2016-06-08T18:43:44.371Z,1014.07
2016-06-08T18:44:44.374Z,1014.06
2016-06-08T18:45:44.394Z,1014.01
2016-06-08T18:46:44.411Z,1014
2016-06-08T18:47:44.399Z,1014.02
2016-06-08T18:48:44.403Z,1014.02
2016-06-08T18:49:44.420Z,1014.02
2016-06-08T18:50:44.423Z,1014.05
2016-06-08T18:51:44.443Z,1014.03
2016-06-08T18:52:44.446Z,1014.06
2016-06-08T18:53:44.449Z,1014.07
2016-06-08T18:54:44.467Z,1014.08
2016-06-08T18:55:44.471Z,1014.07
2016-06-08T18:56:44.473Z,1014.07
2016-06-08T18:57:44.493Z,1014.11
2016-06-08T18:58:44.495Z,1014.11
2016-06-08T18:59:44.498Z,1014.08
2016-06-08T19:00:44.517Z,1014.08
2016-06-08T19:01:44.521Z,1014.09
2016-06-08T19:02:44.539Z,1014.06
2016-06-08T19:03:44.574Z,1014.09
2016-06-08T19:04:44.592Z,1014.07
2016-06-08T19:05:44.564Z,1014.1
2016-06-08T19:06:44.629Z,1014.08
2016-06-08T19:07:44.618Z,1014.08
2016-06-08T19:08:44.620Z,1014.09
2016-06-08T19:09:44.607Z,1014.08
2016-06-08T19:10:44.595Z,1014.01
2016-06-08T19:11:44.661Z,1014.02
2016-06-08T19:12:44.616Z,1014.03
2016-06-08T19:13:44.650Z,1014.08
2016-06-08T19:14:44.639Z,1014.07
2016-06-08T19:15:44.689Z,1014.07
2016-06-08T19:16:45.145Z,1014.05
2016-06-08T19:17:44.663Z,1014.06
2016-06-08T19:18:44.682Z,1014.09
2016-06-08T19:19:44.716Z,1014.11
2016-06-08T19:20:44.688Z,1014.14
2016-06-08T19:21:44.707Z,1014.07
2016-06-08T19:22:44.725Z,1014.1
2016-06-08T19:23:44.729Z,1014.1
2016-06-08T19:24:44.747Z,1014.11
2016-06-08T19:25:44.766Z,1014.15
2016-06-08T19:26:44.754Z,1014.09
2016-06-08T19:27:44.757Z,1014.09
2016-06-08T19:28:44.776Z,1014.11
2016-06-08T19:29:44.762Z,1014.14
2016-06-08T19:30:44.766Z,1014.15
2016-06-08T19:31:45.425Z,1014.17
2016-06-08T19:32:44.788Z,1014.11
2016-06-08T19:33:44.791Z,1014.12
2016-06-08T19:34:44.794Z,1014.12
2016-06-08T19:35:44.828Z,1014.1
2016-06-08T19:36:44.800Z,1014.12
2016-06-08T19:37:44.865Z,1014.16
2016-06-08T19:38:44.868Z,1014.14
2016-06-08T19:39:44.855Z,1014.12
2016-06-08T19:40:44.858Z,1014.17
2016-06-08T19:41:44.846Z,1014.18
2016-06-08T19:42:44.865Z,1014.21
2016-06-08T19:43:44.868Z,1014.2
2016-06-08T19:44:44.903Z,1014.19
2016-06-08T19:45:44.890Z,1014.17
2016-06-08T19:46:44.893Z,1014.15
2016-06-08T19:47:45.115Z,1014.16
2016-06-08T19:48:44.915Z,1014.18
2016-06-08T19:49:44.933Z,1014.21
2016-06-08T19:50:44.921Z,1014.23
2016-06-08T19:51:44.940Z,1014.25
2016-06-08T19:52:44.942Z,1014.2
2016-06-08T19:53:44.946Z,1014.19
2016-06-08T19:54:44.948Z,1014.23
2016-06-08T19:55:44.967Z,1014.26
2016-06-08T19:56:44.971Z,1014.23
2016-06-08T19:57:44.990Z,1014.28
2016-06-08T19:58:44.993Z,1014.31
2016-06-08T19:59:44.996Z,1014.29
2016-06-08T20:00:45.014Z,1014.36
2016-06-08T20:01:45.017Z,1014.37
2016-06-08T20:02:45.020Z,1014.32
2016-06-08T20:03:45.040Z,1014.34
2016-06-08T20:04:45.042Z,1014.33
2016-06-08T20:05:45.061Z,1014.34
2016-06-08T20:06:45.064Z,1014.38
2016-06-08T20:07:45.066Z,1014.4
2016-06-08T20:08:45.070Z,1014.36
2016-06-08T20:09:45.073Z,1014.36
2016-06-08T20:10:45.092Z,1014.37
2016-06-08T20:11:45.094Z,1014.37
2016-06-08T20:12:45.098Z,1014.36
2016-06-08T20:13:45.117Z,1014.38
2016-06-08T20:14:45.120Z,1014.36
2016-06-08T20:15:45.138Z,1014.4
2016-06-08T20:16:45.141Z,1014.39
2016-06-08T20:17:45.301Z,1014.34
2016-06-08T20:18:45.148Z,1014.33
2016-06-08T20:19:45.166Z,1014.34
2016-06-08T20:20:45.169Z,1014.33
2016-06-08T20:21:45.189Z,1014.32
2016-06-08T20:22:45.192Z,1014.34
2016-06-08T20:23:45.194Z,1014.35
2016-06-08T20:24:45.213Z,1014.35
2016-06-08T20:25:45.216Z,1014.33
2016-06-08T20:26:45.219Z,1014.38
2016-06-08T20:27:45.222Z,1014.32
2016-06-08T20:28:45.241Z,1014.34
2016-06-08T20:29:45.245Z,1014.33
2016-06-08T20:30:45.247Z,1014.32
2016-06-08T20:31:45.765Z,1014.31
2016-06-08T20:32:45.268Z,1014.34
2016-06-08T20:33:45.287Z,1014.33
2016-06-08T20:34:45.291Z,1014.34
2016-06-08T20:35:45.294Z,1014.35
2016-06-08T20:36:45.297Z,1014.34
2016-06-08T20:37:45.316Z,1014.31
2016-06-08T20:38:45.318Z,1014.32
2016-06-08T20:39:45.322Z,1014.29
2016-06-08T20:40:45.340Z,1014.32
2016-06-08T20:41:45.343Z,1014.33
2016-06-08T20:42:45.346Z,1014.28
2016-06-08T20:43:45.365Z,1014.33
2016-06-08T20:44:45.368Z,1014.32
2016-06-08T20:45:45.465Z,1014.3
2016-06-08T20:46:45.718Z,1014.29
2016-06-08T20:47:45.393Z,1014.29
2016-06-08T20:48:45.396Z,1014.3
2016-06-08T20:49:45.400Z,1014.26
2016-06-08T20:50:45.418Z,1014.31
2016-06-08T20:51:45.437Z,1014.34
2016-06-08T20:52:45.440Z,1014.28
2016-06-08T20:53:45.443Z,1014.26
2016-06-08T20:54:45.446Z,1014.29
2016-06-08T20:55:45.450Z,1014.33
2016-06-08T20:56:45.468Z,1014.26
2016-06-08T20:57:45.470Z,1014.28
2016-06-08T20:58:45.490Z,1014.3
2016-06-08T20:59:45.493Z,1014.33
2016-06-08T21:00:45.495Z,1014.3
2016-06-08T21:01:45.514Z,1014.31
2016-06-08T21:02:45.518Z,1014.29
2016-06-08T21:03:45.536Z,1014.31
2016-06-08T21:04:45.524Z,1014.34
2016-06-08T21:05:45.542Z,1014.34
2016-06-08T21:06:45.546Z,1014.37
2016-06-08T21:07:45.548Z,1014.39
2016-06-08T21:08:45.567Z,1014.37
2016-06-08T21:09:45.571Z,1014.4
2016-06-08T21:10:45.590Z,1014.38
2016-06-08T21:11:45.593Z,1014.39
2016-06-08T21:12:45.595Z,1014.4
2016-06-08T21:13:45.599Z,1014.42
2016-06-08T21:14:45.617Z,1014.44
2016-06-08T21:15:45.636Z,1014.44
2016-06-08T21:16:45.623Z,1014.41
2016-06-08T21:17:45.642Z,1014.41
2016-06-08T21:18:45.645Z,1014.45
2016-06-08T21:19:45.648Z,1014.43
2016-06-08T21:20:45.666Z,1014.47
2016-06-08T21:21:45.669Z,1014.49
2016-06-08T21:22:45.673Z,1014.47
2016-06-08T21:23:45.692Z,1014.48
2016-06-08T21:24:45.694Z,1014.49
2016-06-08T21:25:45.698Z,1014.54
2016-06-08T21:26:45.700Z,1014.48
2016-06-08T21:27:45.720Z,1014.49
2016-06-08T21:28:45.723Z,1014.52
2016-06-08T21:29:45.726Z,1014.53
2016-06-08T21:30:45.744Z,1014.54
2016-06-08T21:31:45.747Z,1014.53
2016-06-08T21:32:46.126Z,1014.56
2016-06-08T21:33:45.769Z,1014.55
2016-06-08T21:34:45.773Z,1014.58
2016-06-08T21:35:45.776Z,1014.55
2016-06-08T21:36:45.794Z,1014.54
2016-06-08T21:37:45.798Z,1014.56
2016-06-08T21:38:45.800Z,1014.55
2016-06-08T21:39:45.819Z,1014.56
2016-06-08T21:40:45.821Z,1014.59
2016-06-08T21:41:45.825Z,1014.62
2016-06-08T21:42:45.844Z,1014.57
2016-06-08T21:43:45.847Z,1014.56
2016-06-08T21:44:45.850Z,1014.59
2016-06-08T21:45:45.868Z,1014.56
2016-06-08T21:46:45.871Z,1014.54
2016-06-08T21:47:45.874Z,1014.53
2016-06-08T21:48:45.893Z,1014.53
2016-06-08T21:49:45.897Z,1014.52
2016-06-08T21:50:45.899Z,1014.53
2016-06-08T21:51:45.919Z,1014.5
2016-06-08T21:52:45.921Z,1014.52
2016-06-08T21:53:45.924Z,1014.51
2016-06-08T21:54:45.943Z,1014.51
2016-06-08T21:55:45.946Z,1014.54
2016-06-08T21:56:45.949Z,1014.52
2016-06-08T21:57:45.952Z,1014.52
2016-06-08T21:58:45.971Z,1014.54
2016-06-08T21:59:45.974Z,1014.49
2016-06-08T22:00:45.977Z,1014.48
2016-06-08T22:01:45.981Z,1014.53
2016-06-08T22:02:45.999Z,1014.55
2016-06-08T22:03:46.003Z,1014.54